JOHN F KENNEDY INTL

KJFK (JFK)
New York, New York
Towered

Vatsim Metar:
KJFK 041751Z 05007KT 010V110 10SM SCT040 28/18 A2993 RMK AO2 SLP134 T02780178 10283 20211 58005 $

No ATC Online

Traffic

Inbound:
Ident
Type
Name
ETA
Phase
JBU918
A320/L
Michael Salmon KLAX
Boarding
JBU1382
A320/L
RICKY PHUOC TRUONG
19:54 Z
Cruse
WJA99
B38M
Evan Nissan KMCO
20:43 Z
Climb
AAL227
H/B789
Joshua King EGLL
Taxiing Out
AAL207
B738
Claus Schuelke KLAX
Boarding
PAY5739
H/B789/L
Brendan McCoy KPNS
20:40 Z
Cruse
JBU480
A320/L
Joseph Burroughs EGKK
21:05 Z
Cruse
CPA94
H/B748/L
Christian Birch KSEA
21:35 Z
Cruse
TAM426
H/B77W/L
Alex Mollen TNCC
00:08 Z
Cruse

Outbound:
Ident
Type
Name
Destination
Phase
JBU1373
A320/L
Cuesta Lucas SAEZ
KCHS
Taxiing Out
ETD100
H/A388/L
Ilya Khokhlov KATL
OMAA
Boarding
UAE43C
H/A388/L
Seyoung EGGD
OMDB
Taxiing Out
JBU743
A320
Stephen Barr KPBI
TAPA
Boarding